Lake Worth, Florida
Current Conditions -  °F | °C
As of 4:53 AM on Monday 22 Dec 2014 (Local Time) from KPBI Reporting Station
Broken Clouds Broken Clouds  
Wind Chill: 69°   Ceiling: 25000
Heat Index: 69°   Visibility: 10mi
Dew Point: 64°   Wind: 0mph
Humidity: 84%   Direction: NA
Pressure: 30.01"   Gusts: NA
Location:  26.62°N, 80.06°W
Report Text: KPBI 220953Z 00000KT 10SM FEW060 BKN250 21/18 A3001 RMK AO2 SLP160 T02060178
Loading
Personal Weather Stations






























Interactive Weather Map New forecast layout! Learn more

10-Day Weather Forecast

Advertisements
Track Severe Weather on mobile